createdAt,value
2022-10-28T00:00:05.826Z,10.67
2022-10-28T00:02:52.367Z,10.58
2022-10-28T00:05:39.090Z,10.38
2022-10-28T00:08:25.428Z,10.43
2022-10-28T00:11:16.029Z,10.66
2022-10-28T00:14:05.115Z,10.62
2022-10-28T00:16:51.867Z,10.57
2022-10-28T00:19:38.219Z,10.52
2022-10-28T00:22:24.581Z,10.43
2022-10-28T00:25:11.273Z,10.46
2022-10-28T00:27:57.602Z,10.34
2022-10-28T00:30:43.770Z,10.40
2022-10-28T00:33:30.466Z,10.40
2022-10-28T00:36:23.771Z,10.39
2022-10-28T00:39:16.129Z,10.25
2022-10-28T00:42:03.605Z,10.34
2022-10-28T00:44:55.256Z,10.32
2022-10-28T00:47:55.218Z,10.30
2022-10-28T00:50:54.062Z,10.16
2022-10-28T00:53:42.135Z,10.23
2022-10-28T00:56:32.871Z,10.15
2022-10-28T00:59:34.377Z,10.10
2022-10-28T01:02:21.383Z,9.92
2022-10-28T01:05:08.759Z,10.04
2022-10-28T01:08:01.433Z,10.12
2022-10-28T01:10:50.646Z,10.11
2022-10-28T01:14:00.434Z,10.13
2022-10-28T01:17:10.494Z,10.21
2022-10-28T01:20:27.303Z,10.17
2022-10-28T01:23:32.782Z,10.14
2022-10-28T01:26:33.552Z,9.96
2022-10-28T01:29:41.900Z,10.08
2022-10-28T01:33:04.349Z,10.04
2022-10-28T01:36:01.613Z,9.89
2022-10-28T01:38:51.038Z,10.04
2022-10-28T01:41:53.617Z,9.95
2022-10-28T01:44:56.301Z,9.91
2022-10-28T01:47:54.094Z,10.00
2022-10-28T01:50:51.046Z,9.76
2022-10-28T01:53:41.736Z,9.91
2022-10-28T01:56:33.009Z,9.78
2022-10-28T01:59:24.886Z,9.88
2022-10-28T02:02:11.236Z,9.78
2022-10-28T02:05:35.786Z,9.86
2022-10-28T02:08:52.307Z,9.89
2022-10-28T02:11:45.749Z,9.93
2022-10-28T02:18:14.961Z,9.93
2022-10-28T02:21:06.089Z,9.83
2022-10-28T02:24:16.218Z,9.83
2022-10-28T02:27:16.269Z,9.82
2022-10-28T02:30:19.170Z,9.76
2022-10-28T02:33:12.736Z,9.75
2022-10-28T02:36:05.236Z,9.80
2022-10-28T02:38:55.607Z,9.75
2022-10-28T02:41:48.229Z,9.82
2022-10-28T02:44:40.462Z,9.91
2022-10-28T02:47:32.570Z,10.04
2022-10-28T02:50:22.037Z,9.38
2022-10-28T02:53:19.166Z,10.16
2022-10-28T02:56:08.262Z,10.24
2022-10-28T02:58:54.473Z,10.24
2022-10-28T03:01:40.849Z,10.40
2022-10-28T03:04:27.383Z,10.28
2022-10-28T03:07:13.908Z,10.29
2022-10-28T03:10:00.461Z,10.39
2022-10-28T03:12:46.750Z,10.44
2022-10-28T03:15:33.258Z,10.31
2022-10-28T03:18:19.710Z,10.59
2022-10-28T03:21:05.914Z,10.47
2022-10-28T03:23:52.019Z,10.30
2022-10-28T03:26:38.777Z,10.61
2022-10-28T03:29:24.851Z,10.43
2022-10-28T03:32:10.985Z,10.52
2022-10-28T03:34:57.605Z,10.46
2022-10-28T03:37:44.362Z,10.56
2022-10-28T03:40:30.784Z,10.58
2022-10-28T03:43:17.854Z,10.51
2022-10-28T03:46:04.412Z,10.25
2022-10-28T03:48:50.620Z,10.43
2022-10-28T03:51:36.913Z,10.65
2022-10-28T03:54:23.301Z,10.67
2022-10-28T03:57:09.681Z,10.61
2022-10-28T03:59:55.868Z,10.60
2022-10-28T04:02:42.193Z,10.68
2022-10-28T04:05:28.649Z,10.59
2022-10-28T04:08:19.198Z,10.70
2022-10-28T04:11:05.794Z,10.67
2022-10-28T04:13:52.174Z,10.63
2022-10-28T04:16:38.454Z,10.76
2022-10-28T04:19:24.901Z,10.67
2022-10-28T04:22:10.996Z,10.75
2022-10-28T04:24:57.406Z,10.79
2022-10-28T04:27:45.205Z,10.94
2022-10-28T04:30:31.425Z,10.72
2022-10-28T04:33:18.112Z,10.81
2022-10-28T04:36:04.494Z,10.80
2022-10-28T04:38:51.896Z,10.87
2022-10-28T04:41:38.527Z,10.89
2022-10-28T04:44:24.556Z,10.98
2022-10-28T04:47:11.053Z,10.82
2022-10-28T04:49:57.264Z,10.95
2022-10-28T04:52:43.709Z,10.96
2022-10-28T04:55:30.154Z,11.05
2022-10-28T04:58:16.346Z,11.02
2022-10-28T05:01:07.411Z,11.05
2022-10-28T05:03:54.110Z,10.86
2022-10-28T05:06:40.334Z,10.88
2022-10-28T05:09:26.599Z,10.97
2022-10-28T05:12:13.001Z,10.83
2022-10-28T05:14:59.368Z,10.86
2022-10-28T05:17:46.729Z,10.87
2022-10-28T05:20:33.190Z,10.85
2022-10-28T05:23:25.815Z,10.99
2022-10-28T05:26:15.117Z,10.87
2022-10-28T05:29:01.499Z,10.57
2022-10-28T05:31:47.997Z,10.64
2022-10-28T05:34:34.514Z,10.51
2022-10-28T05:37:20.719Z,10.58
2022-10-28T05:40:07.813Z,10.63
2022-10-28T05:42:54.421Z,10.49
2022-10-28T05:45:41.199Z,10.65
2022-10-28T05:48:27.737Z,10.88
2022-10-28T05:51:14.231Z,10.81
2022-10-28T05:54:00.533Z,10.69
2022-10-28T05:56:46.837Z,10.68
2022-10-28T05:59:33.313Z,10.68
2022-10-28T06:02:19.822Z,10.58
2022-10-28T06:05:06.528Z,10.44
2022-10-28T06:07:53.101Z,10.52
2022-10-28T06:10:40.310Z,10.55
2022-10-28T06:13:25.337Z,10.44
2022-10-28T06:16:11.534Z,10.52
2022-10-28T06:18:57.927Z,10.57
2022-10-28T06:21:44.088Z,10.80
2022-10-28T06:24:30.333Z,10.53
2022-10-28T06:27:16.702Z,10.76
2022-10-28T06:30:03.631Z,10.81
2022-10-28T06:32:50.088Z,11.02
2022-10-28T06:35:36.663Z,10.97
2022-10-28T06:38:23.807Z,10.88
2022-10-28T06:41:10.223Z,10.86
2022-10-28T06:43:56.518Z,11.13
2022-10-28T06:46:44.441Z,11.31
2022-10-28T06:49:30.691Z,11.57
2022-10-28T06:52:17.204Z,11.61
2022-10-28T06:55:03.684Z,11.48
2022-10-28T06:57:49.873Z,11.65
2022-10-28T07:00:36.087Z,11.74
2022-10-28T07:03:22.585Z,11.65
2022-10-28T07:06:09.650Z,11.97
2022-10-28T07:08:55.768Z,12.04
2022-10-28T07:11:45.146Z,11.88
2022-10-28T07:14:32.091Z,12.05
2022-10-28T07:17:18.520Z,12.08
2022-10-28T07:20:05.308Z,12.04
2022-10-28T07:23:00.335Z,12.38
2022-10-28T07:25:54.927Z,12.47
2022-10-28T07:28:42.836Z,12.62
2022-10-28T07:31:29.634Z,12.52
2022-10-28T07:34:16.005Z,12.61
2022-10-28T07:37:02.134Z,12.73
2022-10-28T07:39:48.467Z,12.68
2022-10-28T07:42:35.212Z,12.74
2022-10-28T07:45:21.985Z,12.81
2022-10-28T07:48:09.628Z,12.80
2022-10-28T07:50:55.897Z,12.96
2022-10-28T07:53:42.340Z,13.08
2022-10-28T07:56:28.826Z,12.93
2022-10-28T07:59:15.891Z,12.87
2022-10-28T08:02:02.951Z,13.14
2022-10-28T08:04:49.460Z,13.06
2022-10-28T08:07:38.522Z,13.26
2022-10-28T08:10:26.602Z,13.46
2022-10-28T08:13:13.252Z,13.40
2022-10-28T08:16:00.500Z,13.56
2022-10-28T08:18:47.053Z,13.44
2022-10-28T08:21:33.212Z,13.62
2022-10-28T08:24:19.499Z,13.45
2022-10-28T08:27:06.132Z,13.70
2022-10-28T08:29:53.964Z,13.81
2022-10-28T08:32:40.000Z,13.72
2022-10-28T08:35:26.400Z,13.86
2022-10-28T08:38:12.609Z,13.82
2022-10-28T08:41:07.836Z,13.68
2022-10-28T08:44:12.672Z,13.95
2022-10-28T08:47:05.133Z,14.12
2022-10-28T08:49:57.741Z,14.01
2022-10-28T08:53:14.544Z,14.26
2022-10-28T08:56:14.484Z,14.34
2022-10-28T08:59:04.645Z,14.33
2022-10-28T09:01:56.632Z,13.95
2022-10-28T09:04:45.411Z,14.19
2022-10-28T09:07:35.980Z,14.17
2022-10-28T09:10:34.611Z,14.36
2022-10-28T09:13:41.340Z,14.32
2022-10-28T09:16:46.125Z,14.51
2022-10-28T09:19:47.374Z,14.62
2022-10-28T09:22:43.304Z,14.73
2022-10-28T09:25:53.112Z,14.61
2022-10-28T09:29:11.694Z,14.87
2022-10-28T09:32:16.785Z,15.13
2022-10-28T09:35:11.529Z,15.09
2022-10-28T09:38:12.021Z,15.45
2022-10-28T09:41:04.301Z,15.53
2022-10-28T09:44:00.556Z,15.55
2022-10-28T09:46:51.077Z,15.73
2022-10-28T09:49:39.879Z,16.02
2022-10-28T09:52:43.239Z,15.88
2022-10-28T09:55:30.289Z,16.11
2022-10-28T09:58:18.013Z,16.15
2022-10-28T10:01:04.933Z,16.49
2022-10-28T10:03:52.236Z,16.60
2022-10-28T10:06:42.708Z,16.71
2022-10-28T10:09:31.770Z,16.79
2022-10-28T10:12:18.471Z,16.83
2022-10-28T10:15:07.575Z,16.77
2022-10-28T10:17:57.297Z,16.59
2022-10-28T10:20:52.382Z,16.53
2022-10-28T10:26:32.606Z,16.73
2022-10-28T10:29:19.611Z,17.07
2022-10-28T10:32:15.188Z,17.13
2022-10-28T10:35:06.644Z,17.08
2022-10-28T10:37:55.743Z,17.29
2022-10-28T10:40:50.379Z,17.13
2022-10-28T10:43:36.756Z,17.35
2022-10-28T10:46:23.001Z,17.54
2022-10-28T10:49:15.764Z,17.65
2022-10-28T10:52:04.149Z,17.32
2022-10-28T10:55:01.616Z,17.52
2022-10-28T10:57:49.013Z,17.62
2022-10-28T11:00:45.880Z,17.48
2022-10-28T11:03:36.764Z,17.76
2022-10-28T11:06:27.248Z,17.95
2022-10-28T11:09:27.429Z,18.09
2022-10-28T11:12:34.928Z,18.30
2022-10-28T11:15:29.871Z,18.13
2022-10-28T11:18:20.545Z,18.18
2022-10-28T11:21:44.652Z,18.18
2022-10-28T11:24:49.412Z,18.24
2022-10-28T11:28:06.532Z,18.33
2022-10-28T11:31:11.438Z,18.20
2022-10-28T11:34:13.040Z,18.45
2022-10-28T11:37:19.712Z,18.70
2022-10-28T11:40:14.803Z,18.77
2022-10-28T11:43:23.811Z,18.93
2022-10-28T11:46:38.181Z,18.94
2022-10-28T11:49:30.617Z,19.10
2022-10-28T11:52:54.355Z,19.13
2022-10-28T11:55:58.719Z,19.13
2022-10-28T11:59:00.776Z,19.31
2022-10-28T12:02:02.090Z,19.34
2022-10-28T12:05:09.892Z,19.57
2022-10-28T12:08:05.003Z,19.71
2022-10-28T12:11:00.419Z,20.33
2022-10-28T12:14:26.747Z,20.36
2022-10-28T12:17:35.562Z,20.59
2022-10-28T12:20:28.657Z,20.96
2022-10-28T12:23:21.882Z,21.16
2022-10-28T12:26:12.988Z,21.38
2022-10-28T12:29:03.468Z,21.53
2022-10-28T12:32:07.955Z,21.66
2022-10-28T12:35:03.644Z,22.00
2022-10-28T12:38:02.798Z,21.97
2022-10-28T12:41:08.141Z,22.14
2022-10-28T12:44:24.416Z,22.08
2022-10-28T12:47:22.917Z,22.26
2022-10-28T12:50:27.751Z,22.05
2022-10-28T12:53:24.529Z,21.75
2022-10-28T12:56:21.845Z,22.00
2022-10-28T12:59:34.269Z,22.07
2022-10-28T13:02:30.233Z,21.89
2022-10-28T13:05:41.601Z,22.12
2022-10-28T13:08:47.073Z,22.30
2022-10-28T13:11:49.167Z,22.11
2022-10-28T13:15:05.127Z,22.01
2022-10-28T13:18:01.527Z,21.97
2022-10-28T13:21:18.848Z,22.17
2022-10-28T13:24:16.946Z,22.30
2022-10-28T13:27:05.168Z,22.39
2022-10-28T13:29:56.489Z,22.38
2022-10-28T13:32:43.252Z,22.58
2022-10-28T13:35:30.808Z,22.70
2022-10-28T13:38:23.709Z,22.63
2022-10-28T13:41:25.830Z,22.96
2022-10-28T13:44:25.048Z,22.91
2022-10-28T13:47:14.378Z,22.89
2022-10-28T13:50:10.053Z,22.73
2022-10-28T13:53:42.491Z,22.70
2022-10-28T13:56:39.287Z,22.53
2022-10-28T13:59:34.376Z,22.43
2022-10-28T14:02:36.747Z,22.39
2022-10-28T14:05:32.221Z,22.21
2022-10-28T14:08:32.388Z,22.05
2022-10-28T14:11:29.131Z,21.93
2022-10-28T14:14:17.069Z,21.85
2022-10-28T14:17:04.103Z,21.81
2022-10-28T14:19:52.690Z,21.94
2022-10-28T14:22:39.050Z,21.65
2022-10-28T14:25:40.844Z,21.75
2022-10-28T14:28:27.252Z,21.70
2022-10-28T14:31:14.579Z,21.62
2022-10-28T14:34:00.895Z,21.64
2022-10-28T14:36:50.344Z,21.52
2022-10-28T14:40:00.623Z,21.15
2022-10-28T14:43:06.028Z,21.41
2022-10-28T14:46:15.800Z,21.32
2022-10-28T14:49:04.068Z,21.02
2022-10-28T14:51:51.947Z,21.09
2022-10-28T14:54:48.071Z,20.88
2022-10-28T14:57:34.765Z,20.75
2022-10-28T15:00:25.859Z,20.83
2022-10-28T15:03:14.024Z,20.69
2022-10-28T15:06:23.698Z,20.60
2022-10-28T15:09:22.784Z,20.31
2022-10-28T15:12:16.749Z,20.35
2022-10-28T15:15:03.413Z,20.23
2022-10-28T15:17:50.222Z,20.22
2022-10-28T15:20:36.773Z,20.07
2022-10-28T15:23:23.470Z,20.00
2022-10-28T15:26:17.059Z,19.97
2022-10-28T15:29:03.355Z,19.72
2022-10-28T15:32:24.130Z,19.88
2022-10-28T15:35:29.670Z,19.81
2022-10-28T15:38:32.752Z,19.69
2022-10-28T15:41:22.296Z,19.59
2022-10-28T15:44:25.656Z,19.15
2022-10-28T15:47:33.129Z,19.26
2022-10-28T15:50:28.252Z,18.99
2022-10-28T15:53:33.129Z,18.76
2022-10-28T15:56:19.666Z,18.59
2022-10-28T15:59:23.842Z,18.23
2022-10-28T16:02:43.039Z,18.34
2022-10-28T16:05:32.593Z,18.16
2022-10-28T16:08:39.489Z,18.00
2022-10-28T16:11:26.597Z,17.59
2022-10-28T16:14:37.574Z,17.66
2022-10-28T16:17:42.284Z,17.36
2022-10-28T16:20:30.546Z,16.86
2022-10-28T16:23:19.477Z,17.14
2022-10-28T16:26:06.101Z,16.77
2022-10-28T16:28:52.665Z,16.95
2022-10-28T16:31:41.478Z,17.13
2022-10-28T16:34:27.792Z,17.02
2022-10-28T16:37:21.957Z,17.06
2022-10-28T16:40:24.883Z,16.96
2022-10-28T16:43:17.420Z,16.85
2022-10-28T16:46:03.798Z,16.59
2022-10-28T16:48:50.521Z,16.34
2022-10-28T16:51:37.151Z,16.44
2022-10-28T16:54:23.420Z,16.18
2022-10-28T16:57:09.911Z,16.23
2022-10-28T17:05:21.178Z,16.06
2022-10-28T17:22:47.202Z,15.54
2022-10-28T17:25:33.828Z,14.59
2022-10-28T17:28:20.309Z,15.39
2022-10-28T17:31:08.737Z,15.07
2022-10-28T17:33:55.515Z,14.32
2022-10-28T17:36:42.162Z,14.79
2022-10-28T17:39:29.053Z,14.71
2022-10-28T17:42:15.638Z,15.02
2022-10-28T17:45:01.826Z,14.48
2022-10-28T17:47:48.639Z,14.17
2022-10-28T17:50:34.981Z,14.82
2022-10-28T17:53:22.157Z,14.65
2022-10-28T17:56:09.352Z,14.82
2022-10-28T17:58:56.076Z,14.00
2022-10-28T18:01:42.503Z,14.29
2022-10-28T18:04:30.273Z,13.98
2022-10-28T18:07:16.707Z,14.52
2022-10-28T18:10:03.522Z,14.05
2022-10-28T18:12:51.396Z,14.05
2022-10-28T18:15:38.224Z,14.05
2022-10-28T18:18:27.806Z,14.54
2022-10-28T18:21:14.406Z,14.14
2022-10-28T18:24:03.934Z,14.56
2022-10-28T18:26:54.558Z,14.38
2022-10-28T18:29:41.320Z,13.82
2022-10-28T18:32:27.735Z,13.94
2022-10-28T18:35:14.130Z,13.84
2022-10-28T18:38:01.268Z,14.02
2022-10-28T18:40:47.953Z,14.37
2022-10-28T18:43:34.352Z,14.02
2022-10-28T18:46:21.203Z,13.48
2022-10-28T18:49:08.062Z,13.59
2022-10-28T18:51:54.528Z,14.15
2022-10-28T18:54:41.065Z,14.11
2022-10-28T18:57:27.218Z,14.05
2022-10-28T19:00:18.884Z,14.07
2022-10-28T19:03:05.817Z,14.06
2022-10-28T19:05:52.072Z,14.07
2022-10-28T19:08:38.646Z,14.07
2022-10-28T19:11:29.884Z,14.05
2022-10-28T19:14:16.215Z,13.99
2022-10-28T19:17:03.363Z,14.01
2022-10-28T19:19:51.408Z,14.01
2022-10-28T19:22:37.908Z,13.71
2022-10-28T19:25:24.207Z,13.78
2022-10-28T19:28:10.719Z,13.91
2022-10-28T19:31:01.962Z,13.74
2022-10-28T19:33:48.840Z,13.65
2022-10-28T19:36:35.333Z,13.53
2022-10-28T19:39:21.684Z,13.73
2022-10-28T19:42:08.144Z,13.70
2022-10-28T19:44:54.436Z,13.59
2022-10-28T19:47:40.699Z,13.49
2022-10-28T19:50:27.276Z,13.44
2022-10-28T19:53:13.417Z,13.42
2022-10-28T19:56:01.672Z,13.38
2022-10-28T19:58:53.182Z,13.19
2022-10-28T20:01:40.316Z,13.12
2022-10-28T20:04:27.070Z,13.13
2022-10-28T20:07:13.192Z,13.10
2022-10-28T20:12:50.741Z,12.93
2022-10-28T20:15:37.111Z,12.88
2022-10-28T20:18:24.014Z,12.73
2022-10-28T20:21:18.784Z,12.86
2022-10-28T20:24:06.661Z,12.82
2022-10-28T20:26:53.149Z,12.76
2022-10-28T20:29:39.565Z,12.72
2022-10-28T20:32:29.368Z,12.55
2022-10-28T20:35:15.653Z,12.63
2022-10-28T20:38:01.834Z,12.44
2022-10-28T20:40:49.706Z,12.54
2022-10-28T20:43:35.792Z,12.50
2022-10-28T20:46:23.740Z,12.26
2022-10-28T20:49:10.503Z,12.42
2022-10-28T20:51:56.931Z,12.17
2022-10-28T20:54:43.405Z,12.16
2022-10-28T20:57:29.523Z,12.30
2022-10-28T21:00:17.547Z,12.17
2022-10-28T21:03:03.935Z,12.25
2022-10-28T21:05:50.563Z,12.06
2022-10-28T21:08:37.751Z,12.21
2022-10-28T21:11:24.895Z,12.04
2022-10-28T21:14:11.441Z,12.07
2022-10-28T21:16:58.343Z,11.94
2022-10-28T21:19:44.623Z,11.93
2022-10-28T21:22:31.095Z,11.95
2022-10-28T21:25:17.576Z,12.04
2022-10-28T21:28:04.357Z,11.83
2022-10-28T21:30:50.468Z,11.82
2022-10-28T21:33:38.060Z,11.92
2022-10-28T21:36:24.884Z,11.87
2022-10-28T21:39:10.947Z,11.78
2022-10-28T21:41:57.324Z,11.90
2022-10-28T21:44:43.933Z,11.81
2022-10-28T21:47:34.627Z,11.63
2022-10-28T21:50:21.101Z,11.54
2022-10-28T21:53:07.720Z,11.74
2022-10-28T21:56:02.623Z,11.75
2022-10-28T21:58:50.581Z,11.59
2022-10-28T22:01:37.113Z,11.54
2022-10-28T22:04:23.705Z,11.55
2022-10-28T22:07:09.915Z,11.66
2022-10-28T22:09:56.023Z,11.57
2022-10-28T22:12:42.475Z,11.65
2022-10-28T22:15:28.912Z,11.60
2022-10-28T22:18:15.369Z,11.62
2022-10-28T22:21:05.848Z,11.68
2022-10-28T22:23:52.607Z,11.61
2022-10-28T22:26:39.132Z,11.59
2022-10-28T22:29:25.305Z,11.56
2022-10-28T22:32:11.488Z,11.43
2022-10-28T22:34:57.584Z,11.41
2022-10-28T22:37:43.904Z,11.39
2022-10-28T22:40:30.051Z,11.22
2022-10-28T22:43:16.292Z,11.30
2022-10-28T22:46:03.372Z,11.18
2022-10-28T22:48:49.611Z,11.21
2022-10-28T22:51:36.424Z,11.24
2022-10-28T22:54:22.959Z,11.19
2022-10-28T22:57:09.508Z,10.98
2022-10-28T22:59:55.754Z,11.02
2022-10-28T23:02:42.399Z,11.02
2022-10-28T23:05:28.906Z,10.93
2022-10-28T23:08:16.032Z,10.99
2022-10-28T23:11:02.859Z,10.81
2022-10-28T23:13:53.810Z,10.72
2022-10-28T23:16:40.356Z,10.88
2022-10-28T23:19:26.888Z,10.72
2022-10-28T23:22:13.353Z,10.72
2022-10-28T23:24:59.886Z,10.75
2022-10-28T23:27:46.256Z,10.78
2022-10-28T23:30:32.856Z,10.72
2022-10-28T23:33:19.346Z,10.78
2022-10-28T23:36:05.707Z,10.52
2022-10-28T23:38:52.506Z,10.55
2022-10-28T23:41:38.820Z,10.54
2022-10-28T23:44:25.233Z,10.33
2022-10-28T23:47:11.756Z,10.58
2022-10-28T23:49:58.164Z,10.50
2022-10-28T23:52:44.570Z,10.36
2022-10-28T23:55:31.012Z,10.41
2022-10-28T23:58:19.406Z,10.40
